sensor_id;sensor_type;location;lat;lon;timestamp;pressure;altitude;pressure_sealevel;temperature;humidity
15405;BME280;7801;48.124;11.590;2024-03-06T00:00:21;95240.09;;;7.14;100.00
15405;BME280;7801;48.124;11.590;2024-03-06T00:02:47;95245.91;;;7.11;100.00
15405;BME280;7801;48.124;11.590;2024-03-06T00:05:13;95246.72;;;7.07;100.00
15405;BME280;7801;48.124;11.590;2024-03-06T00:07:39;95245.66;;;7.08;100.00
15405;BME280;7801;48.124;11.590;2024-03-06T00:10:06;95242.47;;;7.11;100.00
15405;BME280;7801;48.124;11.590;2024-03-06T00:12:33;95249.25;;;7.27;100.00
15405;BME280;7801;48.124;11.590;2024-03-06T00:15:00;95244.81;;;7.17;100.00
15405;BME280;7801;48.124;11.590;2024-03-06T00:17:26;95252.47;;;7.19;100.00
15405;BME280;7801;48.124;11.590;2024-03-06T00:19:53;95254.53;;;7.27;100.00
15405;BME280;7801;48.124;11.590;2024-03-06T00:22:19;95248.78;;;7.20;100.00
15405;BME280;7801;48.124;11.590;2024-03-06T00:24:48;95249.59;;;7.10;100.00
15405;BME280;7801;48.124;11.590;2024-03-06T00:27:14;95252.19;;;7.26;100.00
15405;BME280;7801;48.124;11.590;2024-03-06T00:29:44;95252.44;;;7.24;100.00
15405;BME280;7801;48.124;11.590;2024-03-06T00:32:11;95251.16;;;7.16;100.00
15405;BME280;7801;48.124;11.590;2024-03-06T00:34:38;95247.75;;;7.16;100.00
15405;BME280;7801;48.124;11.590;2024-03-06T00:37:04;95244.81;;;7.17;100.00
15405;BME280;7801;48.124;11.590;2024-03-06T00:39:30;95239.47;;;7.28;100.00
15405;BME280;7801;48.124;11.590;2024-03-06T00:41:55;95241.91;;;7.19;100.00
15405;BME280;7801;48.124;11.590;2024-03-06T00:44:21;95243.81;;;7.08;100.00
15405;BME280;7801;48.124;11.590;2024-03-06T00:46:47;95243.78;;;7.13;100.00
15405;BME280;7801;48.124;11.590;2024-03-06T00:49:12;95239.78;;;7.26;100.00
15405;BME280;7801;48.124;11.590;2024-03-06T00:51:39;95240.84;;;7.20;100.00
15405;BME280;7801;48.124;11.590;2024-03-06T00:54:05;95240.31;;;7.23;100.00
15405;BME280;7801;48.124;11.590;2024-03-06T00:56:32;95239.31;;;7.14;100.00
15405;BME280;7801;48.124;11.590;2024-03-06T00:58:58;95239.81;;;7.16;100.00
15405;BME280;7801;48.124;11.590;2024-03-06T01:01:24;95244.31;;;7.15;100.00
15405;BME280;7801;48.124;11.590;2024-03-06T01:03:51;95238.53;;;7.08;100.00
15405;BME280;7801;48.124;11.590;2024-03-06T01:06:16;95243.31;;;7.06;100.00
15405;BME280;7801;48.124;11.590;2024-03-06T01:08:42;95240.88;;;7.15;100.00
15405;BME280;7801;48.124;11.590;2024-03-06T01:11:08;95231.66;;;7.12;100.00
15405;BME280;7801;48.124;11.590;2024-03-06T01:13:35;95240.88;;;7.15;100.00
15405;BME280;7801;48.124;11.590;2024-03-06T01:16:01;95243.03;;;7.08;100.00
15405;BME280;7801;48.124;11.590;2024-03-06T01:18:27;95243.53;;;7.10;100.00
15405;BME280;7801;48.124;11.590;2024-03-06T01:20:52;95237.97;;;7.16;100.00
15405;BME280;7801;48.124;11.590;2024-03-06T01:23:18;95230.03;;;7.21;100.00
15405;BME280;7801;48.124;11.590;2024-03-06T01:25:45;95232.44;;;7.13;100.00
15405;BME280;7801;48.124;11.590;2024-03-06T01:28:11;95239.56;;;7.17;100.00
15405;BME280;7801;48.124;11.590;2024-03-06T01:30:37;95236.16;;;7.07;100.00
15405;BME280;7801;48.124;11.590;2024-03-06T01:33:03;95226.62;;;7.16;100.00
15405;BME280;7801;48.124;11.590;2024-03-06T01:35:31;95233.44;;;7.27;100.00
15405;BME280;7801;48.124;11.590;2024-03-06T01:37:57;95234.53;;;7.16;100.00
15405;BME280;7801;48.124;11.590;2024-03-06T01:40:23;95229.03;;;7.07;100.00
15405;BME280;7801;48.124;11.590;2024-03-06T01:42:49;95233.03;;;7.05;100.00
15405;BME280;7801;48.124;11.590;2024-03-06T01:45:15;95230.59;;;7.13;100.00
15405;BME280;7801;48.124;11.590;2024-03-06T01:47:41;95228.22;;;7.12;100.00
15405;BME280;7801;48.124;11.590;2024-03-06T01:50:08;95224.56;;;7.08;100.00
15405;BME280;7801;48.124;11.590;2024-03-06T01:52:37;95223.56;;;7.04;100.00
15405;BME280;7801;48.124;11.590;2024-03-06T01:55:07;95219.78;;;7.15;100.00
15405;BME280;7801;48.124;11.590;2024-03-06T01:57:34;95222.72;;;7.08;100.00
15405;BME280;7801;48.124;11.590;2024-03-06T02:00:01;95211.81;;;7.25;100.00
15405;BME280;7801;48.124;11.590;2024-03-06T02:02:33;95209.91;;;7.31;100.00
15405;BME280;7801;48.124;11.590;2024-03-06T02:04:59;95214.75;;;7.18;100.00
15405;BME280;7801;48.124;11.590;2024-03-06T02:07:28;95214.53;;;7.10;100.00
15405;BME280;7801;48.124;11.590;2024-03-06T02:09:53;95209.31;;;7.05;100.00
15405;BME280;7801;48.124;11.590;2024-03-06T02:12:19;95213.53;;;7.01;100.00
15405;BME280;7801;48.124;11.590;2024-03-06T02:14:45;95206.69;;;7.00;100.00
15405;BME280;7801;48.124;11.590;2024-03-06T02:17:12;95202.47;;;7.04;100.00
15405;BME280;7801;48.124;11.590;2024-03-06T02:19:42;95196.06;;;7.10;100.00
15405;BME280;7801;48.124;11.590;2024-03-06T02:22:10;95201.41;;;7.05;100.00
15405;BME280;7801;48.124;11.590;2024-03-06T02:24:39;95200.47;;;6.85;100.00
15405;BME280;7801;48.124;11.590;2024-03-06T02:27:06;95194.63;;;6.88;100.00
15405;BME280;7801;48.124;11.590;2024-03-06T02:29:32;95200.59;;;7.04;100.00
15405;BME280;7801;48.124;11.590;2024-03-06T02:31:59;95188.22;;;7.05;100.00
15405;BME280;7801;48.124;11.590;2024-03-06T02:34:29;95185.84;;;7.03;100.00
15405;BME280;7801;48.124;11.590;2024-03-06T02:36:59;95196.31;;;7.13;100.00
15405;BME280;7801;48.124;11.590;2024-03-06T02:39:24;95195.25;;;7.14;100.00
15405;BME280;7801;48.124;11.590;2024-03-06T02:41:51;95195.97;;;7.25;100.00
15405;BME280;7801;48.124;11.590;2024-03-06T02:44:18;95196.00;;;7.20;100.00
15405;BME280;7801;48.124;11.590;2024-03-06T02:46:47;95198.16;;;7.13;100.00
15405;BME280;7801;48.124;11.590;2024-03-06T02:49:13;95194.50;;;7.09;100.00
15405;BME280;7801;48.124;11.590;2024-03-06T02:51:40;95192.84;;;7.18;100.00
15405;BME280;7801;48.124;11.590;2024-03-06T02:54:07;95205.31;;;7.07;100.00
15405;BME280;7801;48.124;11.590;2024-03-06T02:56:33;95200.34;;;7.06;100.00
15405;BME280;7801;48.124;11.590;2024-03-06T02:58:58;95203.41;;;7.18;100.00
15405;BME280;7801;48.124;11.590;2024-03-06T03:01:27;95220.88;;;7.09;100.00
15405;BME280;7801;48.124;11.590;2024-03-06T03:03:55;95212.78;;;6.95;100.00
15405;BME280;7801;48.124;11.590;2024-03-06T03:06:22;95209.19;;;7.25;100.00
15405;BME280;7801;48.124;11.590;2024-03-06T03:08:50;95216.09;;;7.16;100.00
15405;BME280;7801;48.124;11.590;2024-03-06T03:11:17;95213.91;;;6.84;100.00
15405;BME280;7801;48.124;11.590;2024-03-06T03:13:43;95217.09;;;6.76;100.00
15405;BME280;7801;48.124;11.590;2024-03-06T03:16:19;95219.91;;;6.89;100.00
15405;BME280;7801;48.124;11.590;2024-03-06T03:18:47;95224.38;;;6.94;100.00
15405;BME280;7801;48.124;11.590;2024-03-06T03:21:13;95225.34;;;7.08;100.00
15405;BME280;7801;48.124;11.590;2024-03-06T03:23:40;95226.25;;;6.88;100.00
15405;BME280;7801;48.124;11.590;2024-03-06T03:26:08;95221.97;;;7.03;100.00
15405;BME280;7801;48.124;11.590;2024-03-06T03:28:38;95226.41;;;7.07;100.00
15405;BME280;7801;48.124;11.590;2024-03-06T03:31:08;95233.81;;;6.46;100.00
15405;BME280;7801;48.124;11.590;2024-03-06T03:33:36;95229.75;;;6.79;100.00
15405;BME280;7801;48.124;11.590;2024-03-06T03:36:06;95213.91;;;6.84;100.00
15405;BME280;7801;48.124;11.590;2024-03-06T03:38:37;95232.66;;;6.72;100.00
15405;BME280;7801;48.124;11.590;2024-03-06T03:41:09;95232.00;;;6.41;100.00
15405;BME280;7801;48.124;11.590;2024-03-06T03:43:35;95238.28;;;6.55;100.00
15405;BME280;7801;48.124;11.590;2024-03-06T03:46:01;95234.63;;;6.46;100.00
15405;BME280;7801;48.124;11.590;2024-03-06T03:48:29;95231.41;;;6.60;100.00
15405;BME280;7801;48.124;11.590;2024-03-06T03:50:55;95230.03;;;6.77;100.00
15405;BME280;7801;48.124;11.590;2024-03-06T03:53:22;95231.63;;;6.68;100.00
15405;BME280;7801;48.124;11.590;2024-03-06T03:55:49;95227.56;;;6.27;100.00
15405;BME280;7801;48.124;11.590;2024-03-06T03:58:16;95226.97;;;6.45;100.00
15405;BME280;7801;48.124;11.590;2024-03-06T04:00:42;95226.41;;;6.58;100.00
15405;BME280;7801;48.124;11.590;2024-03-06T04:03:08;95233.25;;;6.59;100.00
15405;BME280;7801;48.124;11.590;2024-03-06T04:05:35;95235.19;;;6.43;100.00
15405;BME280;7801;48.124;11.590;2024-03-06T04:08:01;95241.19;;;6.54;100.00
15405;BME280;7801;48.124;11.590;2024-03-06T04:10:27;95241.69;;;6.61;100.00
15405;BME280;7801;48.124;11.590;2024-03-06T04:12:57;95245.94;;;6.47;100.00
15405;BME280;7801;48.124;11.590;2024-03-06T04:15:26;95243.88;;;6.34;100.00
15405;BME280;7801;48.124;11.590;2024-03-06T04:17:53;95243.13;;;6.23;100.00
15405;BME280;7801;48.124;11.590;2024-03-06T04:20:18;95245.94;;;6.47;100.00
15405;BME280;7801;48.124;11.590;2024-03-06T04:22:44;95251.84;;;6.18;100.00
15405;BME280;7801;48.124;11.590;2024-03-06T04:25:13;95253.41;;;6.14;100.00
15405;BME280;7801;48.124;11.590;2024-03-06T04:27:40;95250.00;;;6.19;100.00
15405;BME280;7801;48.124;11.590;2024-03-06T04:30:08;95254.94;;;6.36;100.00
15405;BME280;7801;48.124;11.590;2024-03-06T04:32:35;95253.31;;;6.45;100.00
15405;BME280;7801;48.124;11.590;2024-03-06T04:35:01;95253.88;;;6.42;100.00
15405;BME280;7801;48.124;11.590;2024-03-06T04:37:26;95254.63;;;6.52;100.00
15405;BME280;7801;48.124;11.590;2024-03-06T04:39:53;95259.63;;;6.54;100.00
15405;BME280;7801;48.124;11.590;2024-03-06T04:42:20;95257.06;;;6.34;100.00
15405;BME280;7801;48.124;11.590;2024-03-06T04:44:47;95262.56;;;6.42;100.00
15405;BME280;7801;48.124;11.590;2024-03-06T04:47:12;95266.34;;;5.80;100.00
15405;BME280;7801;48.124;11.590;2024-03-06T04:49:39;95264.50;;;5.81;100.00
15405;BME280;7801;48.124;11.590;2024-03-06T04:52:05;95267.63;;;6.13;100.00
15405;BME280;7801;48.124;11.590;2024-03-06T04:54:32;95272.88;;;6.29;100.00
15405;BME280;7801;48.124;11.590;2024-03-06T04:56:59;95272.34;;;6.37;100.00
15405;BME280;7801;48.124;11.590;2024-03-06T04:59:26;95275.56;;;5.93;100.00
15405;BME280;7801;48.124;11.590;2024-03-06T05:01:53;95276.84;;;5.70;100.00
15405;BME280;7801;48.124;11.590;2024-03-06T05:04:18;95283.19;;;5.59;100.00
15405;BME280;7801;48.124;11.590;2024-03-06T05:06:43;95292.38;;;5.62;100.00
15405;BME280;7801;48.124;11.590;2024-03-06T05:09:10;95291.31;;;5.68;100.00
15405;BME280;7801;48.124;11.590;2024-03-06T05:11:37;95292.66;;;5.70;100.00
15405;BME280;7801;48.124;11.590;2024-03-06T05:14:05;95291.84;;;5.34;100.00
15405;BME280;7801;48.124;11.590;2024-03-06T05:16:31;95300.78;;;5.38;100.00
15405;BME280;7801;48.124;11.590;2024-03-06T05:18:57;95307.50;;;4.94;100.00
15405;BME280;7801;48.124;11.590;2024-03-06T05:21:23;95311.72;;;5.00;100.00
15405;BME280;7801;48.124;11.590;2024-03-06T05:23:48;95303.84;;;5.05;100.00
15405;BME280;7801;48.124;11.590;2024-03-06T05:26:15;95305.47;;;5.16;100.00
15405;BME280;7801;48.124;11.590;2024-03-06T05:28:44;95300.56;;;5.60;100.00
15405;BME280;7801;48.124;11.590;2024-03-06T05:31:17;95310.78;;;5.51;100.00
15405;BME280;7801;48.124;11.590;2024-03-06T05:33:48;95305.47;;;5.16;100.00
15405;BME280;7801;48.124;11.590;2024-03-06T05:36:19;95306.03;;;5.33;100.00
15405;BME280;7801;48.124;11.590;2024-03-06T05:38:45;95314.97;;;5.47;100.00
15405;BME280;7801;48.124;11.590;2024-03-06T05:41:12;95305.78;;;5.65;100.00
15405;BME280;7801;48.124;11.590;2024-03-06T05:43:39;95314.47;;;5.56;100.00
15405;BME280;7801;48.124;11.590;2024-03-06T05:46:06;95322.88;;;5.47;100.00
15405;BME280;7801;48.124;11.590;2024-03-06T05:48:33;95327.34;;;5.37;100.00
15405;BME280;7801;48.124;11.590;2024-03-06T05:51:01;95327.59;;;5.40;100.00
15405;BME280;7801;48.124;11.590;2024-03-06T05:53:27;95341.81;;;5.49;100.00
15405;BME280;7801;48.124;11.590;2024-03-06T05:55:53;95337.91;;;5.57;100.00
15405;BME280;7801;48.124;11.590;2024-03-06T05:58:21;95334.97;;;5.38;100.00
15405;BME280;7801;48.124;11.590;2024-03-06T06:00:47;95335.28;;;5.82;100.00
15405;BME280;7801;48.124;11.590;2024-03-06T06:03:13;95335.06;;;5.99;100.00
15405;BME280;7801;48.124;11.590;2024-03-06T06:05:39;95338.69;;;5.83;100.00
15405;BME280;7801;48.124;11.590;2024-03-06T06:08:07;95330.53;;;5.84;100.00
15405;BME280;7801;48.124;11.590;2024-03-06T06:10:34;95343.66;;;5.39;100.00
15405;BME280;7801;48.124;11.590;2024-03-06T06:13:01;95349.66;;;5.24;100.00
15405;BME280;7801;48.124;11.590;2024-03-06T06:15:28;95350.88;;;4.96;100.00
15405;BME280;7801;48.124;11.590;2024-03-06T06:17:53;95347.91;;;5.60;100.00
15405;BME280;7801;48.124;11.590;2024-03-06T06:20:20;95353.69;;;5.62;100.00
15405;BME280;7801;48.124;11.590;2024-03-06T06:22:46;95354.47;;;5.52;100.00
15405;BME280;7801;48.124;11.590;2024-03-06T06:25:13;95356.81;;;5.49;100.00
15405;BME280;7801;48.124;11.590;2024-03-06T06:27:41;95361.44;;;5.11;100.00
15405;BME280;7801;48.124;11.590;2024-03-06T06:30:08;95363.53;;;5.09;100.00
15405;BME280;7801;48.124;11.590;2024-03-06T06:32:38;95360.69;;;5.21;100.00
15405;BME280;7801;48.124;11.590;2024-03-06T06:35:05;95363.88;;;5.33;100.00
15405;BME280;7801;48.124;11.590;2024-03-06T06:37:31;95362.84;;;5.44;100.00
15405;BME280;7801;48.124;11.590;2024-03-06T06:39:58;95371.75;;;5.28;100.00
15405;BME280;7801;48.124;11.590;2024-03-06T06:42:25;95373.41;;;5.55;100.00
15405;BME280;7801;48.124;11.590;2024-03-06T06:44:52;95373.13;;;5.51;100.00
15405;BME280;7801;48.124;11.590;2024-03-06T06:47:18;95377.56;;;5.35;100.00
15405;BME280;7801;48.124;11.590;2024-03-06T06:49:43;95381.81;;;5.62;100.00
15405;BME280;7801;48.124;11.590;2024-03-06T06:52:11;95379.19;;;5.51;100.00
15405;BME280;7801;48.124;11.590;2024-03-06T06:54:38;95380.28;;;5.71;100.00
15405;BME280;7801;48.124;11.590;2024-03-06T06:57:05;95373.47;;;5.80;100.00
15405;BME280;7801;48.124;11.590;2024-03-06T06:59:34;95370.88;;;6.00;100.00
15405;BME280;7801;48.124;11.590;2024-03-06T07:02:02;95378.75;;;6.10;100.00
15405;BME280;7801;48.124;11.590;2024-03-06T07:04:29;95379.81;;;6.25;100.00
15405;BME280;7801;48.124;11.590;2024-03-06T07:06:54;95372.69;;;5.90;100.00
15405;BME280;7801;48.124;11.590;2024-03-06T07:09:22;95385.03;;;5.79;100.00
15405;BME280;7801;48.124;11.590;2024-03-06T07:11:48;95382.63;;;5.52;100.00
15405;BME280;7801;48.124;11.590;2024-03-06T07:14:14;95390.22;;;5.43;100.00
15405;BME280;7801;48.124;11.590;2024-03-06T07:16:44;95387.50;;;5.18;100.00
15405;BME280;7801;48.124;11.590;2024-03-06T07:19:11;95390.06;;;5.03;100.00
15405;BME280;7801;48.124;11.590;2024-03-06T07:21:39;95395.78;;;5.57;100.00
15405;BME280;7801;48.124;11.590;2024-03-06T07:24:06;95401.31;;;5.66;100.00
15405;BME280;7801;48.124;11.590;2024-03-06T07:26:35;95398.88;;;5.44;100.00
15405;BME280;7801;48.124;11.590;2024-03-06T07:29:02;95399.22;;;5.58;100.00
15405;BME280;7801;48.124;11.590;2024-03-06T07:31:29;95398.25;;;5.94;100.00
15405;BME280;7801;48.124;11.590;2024-03-06T07:33:56;95399.84;;;6.10;100.00
15405;BME280;7801;48.124;11.590;2024-03-06T07:36:23;95397.72;;;5.97;100.00
15405;BME280;7801;48.124;11.590;2024-03-06T07:38:49;95394.03;;;8.61;100.00
15405;BME280;7801;48.124;11.590;2024-03-06T07:41:16;95396.81;;;10.59;100.00
15405;BME280;7801;48.124;11.590;2024-03-06T07:43:41;95397.34;;;10.88;100.00
15405;BME280;7801;48.124;11.590;2024-03-06T07:46:08;95397.37;;;12.07;100.00
15405;BME280;7801;48.124;11.590;2024-03-06T07:48:37;95400.62;;;12.62;96.18
15405;BME280;7801;48.124;11.590;2024-03-06T07:51:04;95404.06;;;12.93;89.50
15405;BME280;7801;48.124;11.590;2024-03-06T07:53:29;95416.69;;;12.79;87.18
15405;BME280;7801;48.124;11.590;2024-03-06T07:55:55;95407.69;;;12.97;84.68
15405;BME280;7801;48.124;11.590;2024-03-06T07:58:23;95409.97;;;12.82;83.85
15405;BME280;7801;48.124;11.590;2024-03-06T08:00:50;95412.13;;;13.02;84.09
15405;BME280;7801;48.124;11.590;2024-03-06T08:03:15;95414.88;;;13.19;82.61
15405;BME280;7801;48.124;11.590;2024-03-06T08:05:43;95416.03;;;13.04;81.95
15405;BME280;7801;48.124;11.590;2024-03-06T08:08:10;95411.69;;;13.08;82.10
15405;BME280;7801;48.124;11.590;2024-03-06T08:10:36;95423.75;;;13.15;81.32
15405;BME280;7801;48.124;11.590;2024-03-06T08:13:03;95418.72;;;13.04;81.53
15405;BME280;7801;48.124;11.590;2024-03-06T08:15:29;95420.84;;;12.71;82.26
15405;BME280;7801;48.124;11.590;2024-03-06T08:17:56;95428.53;;;12.73;82.77
15405;BME280;7801;48.124;11.590;2024-03-06T08:20:22;95426.31;;;12.66;94.60
15405;BME280;7801;48.124;11.590;2024-03-06T08:22:49;95426.25;;;12.58;95.78
15405;BME280;7801;48.124;11.590;2024-03-06T08:25:16;95434.94;;;12.50;94.70
15405;BME280;7801;48.124;11.590;2024-03-06T08:27:42;95440.53;;;12.39;86.79
15405;BME280;7801;48.124;11.590;2024-03-06T08:30:08;95440.97;;;11.42;88.33
15405;BME280;7801;48.124;11.590;2024-03-06T08:32:36;95439.78;;;10.75;89.56
15405;BME280;7801;48.124;11.590;2024-03-06T08:35:08;95445.50;;;9.50;96.30
15405;BME280;7801;48.124;11.590;2024-03-06T08:37:42;95450.97;;;9.11;98.38
15405;BME280;7801;48.124;11.590;2024-03-06T08:40:09;95461.34;;;7.96;100.00
15405;BME280;7801;48.124;11.590;2024-03-06T08:42:46;95459.31;;;7.77;100.00
15405;BME280;7801;48.124;11.590;2024-03-06T08:45:15;95454.91;;;7.63;100.00
15405;BME280;7801;48.124;11.590;2024-03-06T08:47:45;95457.13;;;7.30;100.00
15405;BME280;7801;48.124;11.590;2024-03-06T08:50:12;95460.91;;;6.94;100.00
15405;BME280;7801;48.124;11.590;2024-03-06T08:52:39;95466.16;;;7.14;100.00
15405;BME280;7801;48.124;11.590;2024-03-06T08:55:08;95461.13;;;7.22;100.00
15405;BME280;7801;48.124;11.590;2024-03-06T08:57:35;95465.31;;;7.34;100.00
15405;BME280;7801;48.124;11.590;2024-03-06T09:00:03;95459.78;;;7.30;100.00
15405;BME280;7801;48.124;11.590;2024-03-06T09:02:29;95464.25;;;7.30;100.00
15405;BME280;7801;48.124;11.590;2024-03-06T09:04:55;95464.63;;;6.27;100.00
15405;BME280;7801;48.124;11.590;2024-03-06T09:07:22;95472.50;;;6.01;100.00
15405;BME280;7801;48.124;11.590;2024-03-06T09:09:53;95469.25;;;5.84;100.00
15405;BME280;7801;48.124;11.590;2024-03-06T09:12:19;95471.50;;;6.33;100.00
15405;BME280;7801;48.124;11.590;2024-03-06T09:14:46;95476.25;;;6.36;100.00
15405;BME280;7801;48.124;11.590;2024-03-06T09:17:12;95477.56;;;6.74;100.00
15405;BME280;7801;48.124;11.590;2024-03-06T09:19:42;95484.91;;;6.31;100.00
15405;BME280;7801;48.124;11.590;2024-03-06T09:22:09;95475.44;;;6.45;100.00
15405;BME280;7801;48.124;11.590;2024-03-06T09:24:36;95482.56;;;6.80;100.00
15405;BME280;7801;48.124;11.590;2024-03-06T09:27:04;95486.75;;;6.92;100.00
15405;BME280;7801;48.124;11.590;2024-03-06T09:29:30;95487.56;;;6.87;100.00
15405;BME280;7801;48.124;11.590;2024-03-06T09:31:55;95487.28;;;6.94;100.00
15405;BME280;7801;48.124;11.590;2024-03-06T09:34:23;95495.97;;;7.09;100.00
15405;BME280;7801;48.124;11.590;2024-03-06T09:36:50;95492.84;;;6.72;100.00
15405;BME280;7801;48.124;11.590;2024-03-06T09:39:17;95493.62;;;6.67;100.00
15405;BME280;7801;48.124;11.590;2024-03-06T09:41:50;95488.91;;;6.44;100.00
15405;BME280;7801;48.124;11.590;2024-03-06T09:44:18;95496.56;;;6.61;100.00
15405;BME280;7801;48.124;11.590;2024-03-06T09:46:44;95502.06;;;7.00;100.00
15405;BME280;7801;48.124;11.590;2024-03-06T09:49:13;95493.62;;;6.98;100.00
15405;BME280;7801;48.124;11.590;2024-03-06T09:51:46;95504.44;;;6.96;100.00
15405;BME280;7801;48.124;11.590;2024-03-06T09:54:16;95502.88;;;6.75;100.00
15405;BME280;7801;48.124;11.590;2024-03-06T09:56:43;95506.03;;;6.72;100.00
15405;BME280;7801;48.124;11.590;2024-03-06T09:59:16;95500.22;;;6.54;100.00
15405;BME280;7801;48.124;11.590;2024-03-06T10:02:06;95506.03;;;6.82;100.00
15405;BME280;7801;48.124;11.590;2024-03-06T10:04:43;95504.41;;;7.21;100.00
15405;BME280;7801;48.124;11.590;2024-03-06T10:07:09;95503.34;;;7.17;100.00
15405;BME280;7801;48.124;11.590;2024-03-06T10:09:37;95507.56;;;7.23;100.00
15405;BME280;7801;48.124;11.590;2024-03-06T10:12:03;95506.47;;;7.40;100.00
15405;BME280;7801;48.124;11.590;2024-03-06T10:14:29;95516.75;;;7.31;100.00
15405;BME280;7801;48.124;11.590;2024-03-06T10:16:59;95512.06;;;7.08;100.00
15405;BME280;7801;48.124;11.590;2024-03-06T10:19:29;95518.94;;;6.78;100.00
15405;BME280;7801;48.124;11.590;2024-03-06T10:21:55;95522.13;;;6.85;100.00
15405;BME280;7801;48.124;11.590;2024-03-06T10:24:25;95518.38;;;7.17;100.00
15405;BME280;7801;48.124;11.590;2024-03-06T10:26:59;95535.81;;;6.77;100.00
15405;BME280;7801;48.124;11.590;2024-03-06T10:29:28;95531.59;;;6.92;100.00
15405;BME280;7801;48.124;11.590;2024-03-06T10:31:55;95539.25;;;6.93;100.00
15405;BME280;7801;48.124;11.590;2024-03-06T10:34:23;95532.66;;;6.96;100.00
15405;BME280;7801;48.124;11.590;2024-03-06T10:36:57;95531.56;;;7.27;100.00
15405;BME280;7801;48.124;11.590;2024-03-06T10:39:27;95527.87;;;7.13;100.00
15405;BME280;7801;48.124;11.590;2024-03-06T10:41:57;95527.53;;;7.50;100.00
15405;BME280;7801;48.124;11.590;2024-03-06T10:44:27;95542.41;;;7.05;100.00
15405;BME280;7801;48.124;11.590;2024-03-06T10:47:00;95530.00;;;6.70;100.00
15405;BME280;7801;48.124;11.590;2024-03-06T10:49:28;95540.56;;;6.70;100.00
15405;BME280;7801;48.124;11.590;2024-03-06T10:52:05;95539.47;;;7.32;100.00
15405;BME280;7801;48.124;11.590;2024-03-06T10:54:35;95541.59;;;6.89;100.00
15405;BME280;7801;48.124;11.590;2024-03-06T10:57:05;95546.88;;;6.74;100.00
15405;BME280;7801;48.124;11.590;2024-03-06T10:59:34;95545.00;;;6.49;100.00
15405;BME280;7801;48.124;11.590;2024-03-06T11:02:01;95543.91;;;6.20;100.00
15405;BME280;7801;48.124;11.590;2024-03-06T11:04:29;95554.69;;;6.13;100.00
15405;BME280;7801;48.124;11.590;2024-03-06T11:07:00;95545.28;;;6.43;100.00
15405;BME280;7801;48.124;11.590;2024-03-06T11:09:27;95539.50;;;7.02;100.00
15405;BME280;7801;48.124;11.590;2024-03-06T11:11:54;95550.31;;;7.20;100.00
15405;BME280;7801;48.124;11.590;2024-03-06T11:14:23;95541.84;;;7.29;100.00
15405;BME280;7801;48.124;11.590;2024-03-06T11:17:07;95547.59;;;7.56;100.00
15405;BME280;7801;48.124;11.590;2024-03-06T11:28:31;95547.84;;;7.65;100.00
15405;BME280;7801;48.124;11.590;2024-03-06T11:31:11;95540.44;;;7.62;100.00
15405;BME280;7801;48.124;11.590;2024-03-06T11:33:47;95543.97;;;7.21;100.00
15405;BME280;7801;48.124;11.590;2024-03-06T11:36:18;95548.41;;;7.46;100.00
15405;BME280;7801;48.124;11.590;2024-03-06T11:41:27;95542.91;;;7.22;100.00
15405;BME280;7801;48.124;11.590;2024-03-06T11:43:55;95547.31;;;7.57;100.00
15405;BME280;7801;48.124;11.590;2024-03-06T11:46:22;95549.44;;;7.61;100.00
15405;BME280;7801;48.124;11.590;2024-03-06T11:48:54;95548.09;;;7.68;100.00
15405;BME280;7801;48.124;11.590;2024-03-06T11:51:23;95553.72;;;7.16;100.00
15405;BME280;7801;48.124;11.590;2024-03-06T11:53:52;95552.41;;;7.23;100.00
15405;BME280;7801;48.124;11.590;2024-03-06T11:56:19;95548.97;;;7.13;100.00
15405;BME280;7801;48.124;11.590;2024-03-06T11:58:47;95550.50;;;7.54;100.00
15405;BME280;7801;48.124;11.590;2024-03-06T12:01:13;95557.63;;;7.59;100.00
15405;BME280;7801;48.124;11.590;2024-03-06T12:03:41;95552.00;;;7.81;100.00
15405;BME280;7801;48.124;11.590;2024-03-06T12:06:09;95560.78;;;7.61;100.00
15405;BME280;7801;48.124;11.590;2024-03-06T12:08:36;95564.22;;;7.51;100.00
15405;BME280;7801;48.124;11.590;2024-03-06T12:11:06;95558.88;;;7.77;100.00
15405;BME280;7801;48.124;11.590;2024-03-06T12:13:33;95565.53;;;7.64;100.00
15405;BME280;7801;48.124;11.590;2024-03-06T12:16:04;95562.16;;;7.33;100.00
15405;BME280;7801;48.124;11.590;2024-03-06T12:18:31;95564.78;;;7.43;100.00
15405;BME280;7801;48.124;11.590;2024-03-06T12:21:00;95560.59;;;7.27;100.00
15405;BME280;7801;48.124;11.590;2024-03-06T12:23:28;95564.22;;;7.56;100.00
15405;BME280;7801;48.124;11.590;2024-03-06T12:26:07;95564.09;;;7.92;100.00
15405;BME280;7801;48.124;11.590;2024-03-06T12:28:40;95568.91;;;7.80;100.00
15405;BME280;7801;48.124;11.590;2024-03-06T12:31:07;95567.91;;;7.66;100.00
15405;BME280;7801;48.124;11.590;2024-03-06T12:33:34;95564.75;;;7.58;100.00
15405;BME280;7801;48.124;11.590;2024-03-06T12:36:06;95568.44;;;7.68;100.00
15405;BME280;7801;48.124;11.590;2024-03-06T12:38:59;95567.25;;;7.99;100.00
15405;BME280;7801;48.124;11.590;2024-03-06T12:41:26;95570.50;;;7.81;100.00
15405;BME280;7801;48.124;11.590;2024-03-06T12:43:54;95565.31;;;7.45;100.00
15405;BME280;7801;48.124;11.590;2024-03-06T12:46:23;95570.50;;;7.71;100.00
15405;BME280;7801;48.124;11.590;2024-03-06T12:48:48;95571.56;;;7.75;100.00
15405;BME280;7801;48.124;11.590;2024-03-06T12:51:14;95574.72;;;7.82;100.00
15405;BME280;7801;48.124;11.590;2024-03-06T12:53:40;95577.88;;;7.79;100.00
15405;BME280;7801;48.124;11.590;2024-03-06T12:56:09;95581.16;;;7.40;100.00
15405;BME280;7801;48.124;11.590;2024-03-06T12:58:36;95575.34;;;7.33;100.00
15405;BME280;7801;48.124;11.590;2024-03-06T13:01:02;95577.97;;;7.28;100.00
15405;BME280;7801;48.124;11.590;2024-03-06T13:03:28;95573.75;;;7.47;100.00
15405;BME280;7801;48.124;11.590;2024-03-06T13:05:53;95581.63;;;7.68;100.00
15405;BME280;7801;48.124;11.590;2024-03-06T13:08:20;95576.50;;;7.97;100.00
15405;BME280;7801;48.124;11.590;2024-03-06T13:10:46;95578.50;;;8.25;100.00
15405;BME280;7801;48.124;11.590;2024-03-06T13:13:13;95575.06;;;8.24;100.00